TimeCST,TemperatureF,Dew PointF,Humidity,Sea Level PressureIn,VisibilityMPH,Wind Direction,Wind SpeedMPH,Gust SpeedMPH,PrecipitationIn,Events,Conditions,WindDirDegrees,DateUTC
12:10 AM,44.6,32.0,61,30.15,10.0,SW,12.7,-,N/A,,Clear,220,2013-11-30 06:10:00
12:30 AM,44.6,32.0,61,30.14,10.0,SW,11.5,-,N/A,,Clear,230,2013-11-30 06:30:00
12:50 AM,44.6,32.0,61,30.14,10.0,SW,8.1,-,N/A,,Clear,230,2013-11-30 06:50:00
1:10 AM,41.0,32.0,70,30.14,10.0,SSW,4.6,-,N/A,,Clear,200,2013-11-30 07:10:00
1:30 AM,41.0,32.0,70,30.14,10.0,Calm,Calm,-,N/A,,Clear,0,2013-11-30 07:30:00
1:50 AM,42.8,32.0,66,30.13,10.0,SSW,8.1,-,N/A,,Clear,210,2013-11-30 07:50:00
2:10 AM,41.0,32.0,70,30.13,10.0,SW,9.2,-,N/A,,Clear,230,2013-11-30 08:10:00
2:30 AM,39.2,32.0,75,30.13,10.0,SW,6.9,-,N/A,,Clear,220,2013-11-30 08:30:00
2:50 AM,35.6,32.0,87,30.13,10.0,SW,4.6,-,N/A,,Clear,220,2013-11-30 08:50:00
3:10 AM,35.6,32.0,87,30.14,10.0,SSW,6.9,-,N/A,,Clear,210,2013-11-30 09:10:00
3:30 AM,35.6,32.0,87,30.14,10.0,WSW,5.8,-,N/A,,Clear,240,2013-11-30 09:30:00
3:50 AM,35.6,30.2,81,30.14,10.0,WSW,6.9,-,N/A,,Clear,240,2013-11-30 09:50:00
4:10 AM,32.0,28.4,87,30.14,10.0,WSW,5.8,-,N/A,,Clear,240,2013-11-30 10:10:00
4:30 AM,35.6,30.2,81,30.14,10.0,West,3.5,-,N/A,,Clear,280,2013-11-30 10:30:00
4:50 AM,33.8,28.4,81,30.14,10.0,West,3.5,-,N/A,,Clear,260,2013-11-30 10:50:00
5:10 AM,35.6,30.2,81,30.14,10.0,WNW,4.6,-,N/A,,Clear,290,2013-11-30 11:10:00
5:30 AM,35.6,30.2,81,30.13,10.0,WNW,8.1,-,N/A,,Clear,290,2013-11-30 11:30:00
5:50 AM,32.0,30.2,93,30.13,10.0,West,6.9,-,N/A,,Clear,260,2013-11-30 11:50:00
6:10 AM,32.0,30.2,93,30.13,10.0,West,6.9,-,N/A,,Clear,260,2013-11-30 12:10:00
6:30 AM,32.0,30.2,93,30.14,10.0,WSW,9.2,-,N/A,,Clear,240,2013-11-30 12:30:00
6:50 AM,32.0,28.4,87,30.15,10.0,WSW,9.2,-,N/A,,Clear,240,2013-11-30 12:50:00
7:10 AM,32.0,28.4,87,30.15,10.0,WSW,8.1,-,N/A,,Clear,250,2013-11-30 13:10:00
7:30 AM,32.0,30.2,93,30.15,10.0,West,9.2,-,N/A,,Clear,260,2013-11-30 13:30:00
7:50 AM,33.8,32.0,93,30.16,10.0,West,9.2,-,N/A,,Clear,260,2013-11-30 13:50:00
8:10 AM,35.6,32.0,87,30.16,10.0,West,5.8,-,N/A,,Clear,260,2013-11-30 14:10:00
8:30 AM,37.4,32.0,81,30.17,10.0,West,5.8,-,N/A,,Clear,270,2013-11-30 14:30:00
8:50 AM,39.2,33.8,81,30.17,10.0,West,5.8,-,N/A,,Clear,280,2013-11-30 14:50:00
9:10 AM,39.2,35.6,87,30.17,10.0,West,4.6,-,N/A,,Clear,280,2013-11-30 15:10:00
9:30 AM,41.0,35.6,81,30.17,10.0,West,5.8,-,N/A,,Clear,260,2013-11-30 15:30:00
9:50 AM,44.6,35.6,71,30.17,10.0,WNW,5.8,-,N/A,,Clear,300,2013-11-30 15:50:00
10:10 AM,46.4,35.6,66,30.17,10.0,NW,6.9,-,N/A,,Clear,320,2013-11-30 16:10:00
10:30 AM,46.4,32.0,57,30.17,10.0,WNW,5.8,-,N/A,,Clear,300,2013-11-30 16:30:00
10:50 AM,48.2,32.0,54,30.17,10.0,NNW,8.1,-,N/A,,Clear,330,2013-11-30 16:50:00
11:10 AM,50.0,32.0,50,30.17,10.0,WNW,3.5,-,N/A,,Clear,290,2013-11-30 17:10:00
11:30 AM,53.6,33.8,47,30.16,10.0,WNW,3.5,-,N/A,,Clear,300,2013-11-30 17:30:00
11:50 AM,53.6,32.0,44,30.15,10.0,NW,4.6,-,N/A,,Clear,320,2013-11-30 17:50:00
12:10 PM,57.2,33.8,41,30.14,10.0,WNW,3.5,-,N/A,,Clear,300,2013-11-30 18:10:00
12:30 PM,57.2,32.0,38,30.13,10.0,Calm,Calm,-,N/A,,Clear,0,2013-11-30 18:30:00
12:50 PM,57.2,32.0,38,30.12,10.0,NNW,5.8,-,N/A,,Clear,330,2013-11-30 18:50:00
1:10 PM,59.0,32.0,36,30.11,10.0,SW,3.5,-,N/A,,Clear,220,2013-11-30 19:10:00
1:30 PM,59.0,32.0,36,30.10,9.0,SSW,3.5,-,N/A,,Clear,210,2013-11-30 19:30:00
1:50 PM,59.0,32.0,36,30.10,10.0,Calm,Calm,-,N/A,,Clear,0,2013-11-30 19:50:00
2:10 PM,60.8,32.0,34,30.10,10.0,Calm,Calm,-,N/A,,Clear,0,2013-11-30 20:10:00
2:30 PM,60.8,32.0,34,30.09,10.0,Calm,Calm,-,N/A,,Clear,0,2013-11-30 20:30:00
2:50 PM,62.6,32.0,32,30.09,10.0,South,3.5,-,N/A,,Clear,190,2013-11-30 20:50:00
3:10 PM,62.6,32.0,32,30.08,10.0,South,3.5,-,N/A,,Clear,180,2013-11-30 21:10:00
3:30 PM,62.6,32.0,32,30.08,10.0,SE,3.5,-,N/A,,Clear,130,2013-11-30 21:30:00
3:50 PM,62.6,32.0,32,30.08,10.0,East,3.5,-,N/A,,Clear,100,2013-11-30 21:50:00
4:10 PM,60.8,32.0,34,30.08,10.0,East,5.8,-,N/A,,Clear,90,2013-11-30 22:10:00
4:30 PM,59.0,33.8,39,30.07,10.0,ESE,5.8,-,N/A,,Clear,110,2013-11-30 22:30:00
4:50 PM,55.4,35.6,47,30.08,10.0,SE,5.8,-,N/A,,Clear,130,2013-11-30 22:50:00
5:10 PM,53.6,35.6,51,30.08,10.0,SE,6.9,-,N/A,,Clear,140,2013-11-30 23:10:00
5:30 PM,51.8,35.6,54,30.09,10.0,SE,8.1,-,N/A,,Clear,140,2013-11-30 23:30:00
5:50 PM,50.0,35.6,58,30.10,10.0,SE,8.1,-,N/A,,Clear,140,2013-11-30 23:50:00
6:10 PM,48.2,35.6,62,30.10,10.0,SE,8.1,-,N/A,,Clear,130,2013-12-01 00:10:00
6:30 PM,46.4,33.8,62,30.10,10.0,ESE,8.1,-,N/A,,Clear,120,2013-12-01 00:30:00
6:50 PM,44.6,33.8,66,30.10,10.0,SE,8.1,-,N/A,,Clear,130,2013-12-01 00:50:00
7:10 PM,46.4,33.8,62,30.11,10.0,SE,8.1,-,N/A,,Clear,130,2013-12-01 01:10:00
7:30 PM,44.6,32.0,61,30.11,10.0,SE,6.9,-,N/A,,Clear,130,2013-12-01 01:30:00
7:50 PM,44.6,33.8,66,30.12,10.0,SSE,8.1,-,N/A,,Clear,150,2013-12-01 01:50:00
8:10 PM,41.0,32.0,70,30.12,10.0,SSE,6.9,-,N/A,,Clear,160,2013-12-01 02:10:00
8:30 PM,41.0,32.0,70,30.11,10.0,South,6.9,-,N/A,,Clear,180,2013-12-01 02:30:00
8:50 PM,39.2,32.0,75,30.11,10.0,SSW,5.8,-,N/A,,Clear,210,2013-12-01 02:50:00
9:10 PM,37.4,32.0,81,30.11,10.0,SSW,5.8,-,N/A,,Clear,210,2013-12-01 03:10:00
9:30 PM,37.4,32.0,81,30.12,10.0,SW,4.6,-,N/A,,Clear,220,2013-12-01 03:30:00
9:50 PM,39.2,32.0,75,30.12,10.0,SW,4.6,-,N/A,,Clear,220,2013-12-01 03:50:00
10:10 PM,39.2,32.0,75,30.12,10.0,SSW,4.6,-,N/A,,Clear,210,2013-12-01 04:10:00
10:30 PM,39.2,33.8,81,30.12,10.0,SW,4.6,-,N/A,,Clear,230,2013-12-01 04:30:00
10:50 PM,37.4,32.0,81,30.12,10.0,NW,4.6,-,N/A,,Clear,310,2013-12-01 04:50:00
11:10 PM,35.6,30.2,81,30.12,10.0,WNW,5.8,-,N/A,,Clear,290,2013-12-01 05:10:00
11:30 PM,35.6,32.0,87,30.12,10.0,WNW,6.9,-,N/A,,Clear,290,2013-12-01 05:30:00
11:50 PM,37.4,32.0,81,30.11,10.0,NW,9.2,-,N/A,,Clear,310,2013-12-01 05:50:00